This is the latest recevied weather packets stored in our database for station/object KI4KWR-1. If no packets are shown the sender has not sent any weather packets the latest 10 day(s).
| Time | Temp. | Humidity | Pressure | Rain* | Wind** | Luminosity | Snow |
|---|---|---|---|---|---|---|---|
| 1788278404 | 33.33° C | 51% | 991.6 hPa | 0 mm | - | - | - |
| 1788277504 | 32.78° C | 54% | 991.7 hPa | 0 mm | - | - | - |
| 1788276603 | 32.78° C | 54% | 991.6 hPa | 0 mm | - | - | - |
| 1788275703 | 31.67° C | 60% | 991.7 hPa | 0 mm | - | - | - |
| 1788274804 | 30° C | 65% | 991.6 hPa | 0 mm | - | - | - |
| 1788273904 | 29.44° C | 66% | 991.6 hPa | 0 mm | - | - | - |
| 1788273003 | 28.33° C | 69% | 991.7 hPa | 0 mm | - | - | - |
| 1788272104 | 27.78° C | 70% | 991.7 hPa | 0 mm | - | - | - |
| 1788271204 | 27.22° C | 74% | 991.5 hPa | 0 mm | - | - | - |
| 1788270303 | 26.11° C | 80% | 991.4 hPa | 0 mm | - | - | - |
| 1788269403 | 25.56° C | 79% | 991.5 hPa | 0 mm | - | - | - |
| 1788268504 | 25° C | 82% | 991.5 hPa | 0 mm | - | - | - |
| 1788267604 | 24.44° C | 85% | 991.4 hPa | 0 mm | - | - | - |
| 1788266704 | 23.33° C | 89% | 991.3 hPa | 0 mm | - | - | - |
| 1788265804 | 21.67° C | 92% | 991.2 hPa | 0 mm | - | - | - |
| 1788264903 | 21.67° C | 92% | 991.2 hPa | 0 mm | - | - | - |
| 1788264025 | 20.56° C | 92% | 990.8 hPa | 0 mm | - | - | - |
| 1788263103 | 20.56° C | 92% | 990.7 hPa | 0 mm | - | - | - |
| 1788262219 | 20.56° C | 91% | 990.7 hPa | 0 mm | - | - | - |
| 1788261304 | 20.56° C | 91% | 990.6 hPa | 0 mm | - | - | - |
| 1788260404 | 20.56° C | 91% | 990.5 hPa | 0 mm | - | - | - |
| 1788259504 | 20.56° C | 91% | 990.5 hPa | 0 mm | - | - | - |
| 1788258604 | 20.56° C | 91% | 990.3 hPa | 0 mm | - | - | - |
| 1788257704 | 20.56° C | 91% | 990.2 hPa | 0 mm | - | - | - |
| 1788256804 | 20.56° C | 91% | 990 hPa | 0 mm | - | - | - |
* Rain latest hour (hover to see other rain measurements)
** Current wind speed in m/s (hover to see current wind gust speed)